sensor_id;sensor_type;location;lat;lon;timestamp;temperature;humidity
9668;DHT22;4872;48.316;10.650;2024-03-02T05:07:44;5.30;99.90
9668;DHT22;4872;48.316;10.650;2024-03-02T05:10:11;5.30;99.90
9668;DHT22;4872;48.316;10.650;2024-03-02T05:12:38;5.30;99.90
9668;DHT22;4872;48.316;10.650;2024-03-02T05:15:22;5.40;99.90
9668;DHT22;4872;48.316;10.650;2024-03-02T05:17:48;5.40;99.90
9668;DHT22;4872;48.316;10.650;2024-03-02T05:20:15;5.30;99.90
9668;DHT22;4872;48.316;10.650;2024-03-02T05:22:43;5.30;99.90
9668;DHT22;4872;48.316;10.650;2024-03-02T05:25:10;5.30;99.90
9668;DHT22;4872;48.316;10.650;2024-03-02T05:27:37;5.20;99.90
9668;DHT22;4872;48.316;10.650;2024-03-02T05:30:04;5.20;99.90
9668;DHT22;4872;48.316;10.650;2024-03-02T05:32:32;5.10;99.90
9668;DHT22;4872;48.316;10.650;2024-03-02T05:34:59;5.10;99.90
9668;DHT22;4872;48.316;10.650;2024-03-02T05:37:26;5.00;99.90
9668;DHT22;4872;48.316;10.650;2024-03-02T05:39:55;4.90;99.90
9668;DHT22;4872;48.316;10.650;2024-03-02T05:42:22;5.30;99.90
9668;DHT22;4872;48.316;10.650;2024-03-02T05:44:49;5.00;99.90
9668;DHT22;4872;48.316;10.650;2024-03-02T05:47:15;5.00;99.90
9668;DHT22;4872;48.316;10.650;2024-03-02T05:49:42;4.90;99.90
9668;DHT22;4872;48.316;10.650;2024-03-02T05:52:09;4.90;99.90
9668;DHT22;4872;48.316;10.650;2024-03-02T05:54:36;4.90;99.90
9668;DHT22;4872;48.316;10.650;2024-03-02T05:57:04;4.90;99.90
9668;DHT22;4872;48.316;10.650;2024-03-02T05:59:52;4.80;99.90
9668;DHT22;4872;48.316;10.650;2024-03-02T06:02:19;4.80;99.90
9668;DHT22;4872;48.316;10.650;2024-03-02T06:04:45;4.80;99.90
9668;DHT22;4872;48.316;10.650;2024-03-02T06:07:12;4.90;99.90
9668;DHT22;4872;48.316;10.650;2024-03-02T06:09:39;4.90;99.90
9668;DHT22;4872;48.316;10.650;2024-03-02T06:12:09;4.90;99.90
9668;DHT22;4872;48.316;10.650;2024-03-02T06:14:35;5.10;99.90
9668;DHT22;4872;48.316;10.650;2024-03-02T06:17:02;4.90;99.90
9668;DHT22;4872;48.316;10.650;2024-03-02T06:19:29;5.00;99.90
9668;DHT22;4872;48.316;10.650;2024-03-02T06:21:56;4.80;99.90
9668;DHT22;4872;48.316;10.650;2024-03-02T06:24:23;4.80;99.90
9668;DHT22;4872;48.316;10.650;2024-03-02T06:26:49;4.80;99.90
9668;DHT22;4872;48.316;10.650;2024-03-02T06:29:17;4.80;99.90
9668;DHT22;4872;48.316;10.650;2024-03-02T06:31:44;4.80;99.90
9668;DHT22;4872;48.316;10.650;2024-03-02T06:34:11;4.90;99.90
9668;DHT22;4872;48.316;10.650;2024-03-02T06:36:38;5.00;99.90
9668;DHT22;4872;48.316;10.650;2024-03-02T06:39:06;5.20;99.90
9668;DHT22;4872;48.316;10.650;2024-03-02T06:41:33;5.40;99.90
9668;DHT22;4872;48.316;10.650;2024-03-02T06:44:00;5.60;99.90
9668;DHT22;4872;48.316;10.650;2024-03-02T06:46:28;5.70;99.90
9668;DHT22;4872;48.316;10.650;2024-03-02T06:48:55;5.90;99.90
9668;DHT22;4872;48.316;10.650;2024-03-02T06:51:22;5.80;99.90
9668;DHT22;4872;48.316;10.650;2024-03-02T06:53:49;5.70;99.90
9668;DHT22;4872;48.316;10.650;2024-03-02T06:56:16;5.70;99.90
9668;DHT22;4872;48.316;10.650;2024-03-02T06:58:42;5.70;99.90
9668;DHT22;4872;48.316;10.650;2024-03-02T07:01:09;5.70;99.90
9668;DHT22;4872;48.316;10.650;2024-03-02T07:03:37;5.70;99.90
9668;DHT22;4872;48.316;10.650;2024-03-02T07:06:04;5.80;99.90
9668;DHT22;4872;48.316;10.650;2024-03-02T07:08:31;6.10;99.90
9668;DHT22;4872;48.316;10.650;2024-03-02T07:10:58;6.20;99.90
9668;DHT22;4872;48.316;10.650;2024-03-02T07:13:25;6.40;99.90
9668;DHT22;4872;48.316;10.650;2024-03-02T07:15:52;6.70;99.90
9668;DHT22;4872;48.316;10.650;2024-03-02T07:18:47;7.10;99.90
9668;DHT22;4872;48.316;10.650;2024-03-02T07:21:17;7.50;99.90
9668;DHT22;4872;48.316;10.650;2024-03-02T07:23:43;7.60;99.90
9668;DHT22;4872;48.316;10.650;2024-03-02T07:26:10;8.00;99.90
9668;DHT22;4872;48.316;10.650;2024-03-02T07:28:37;8.40;99.90
9668;DHT22;4872;48.316;10.650;2024-03-02T07:31:04;8.80;99.90
9668;DHT22;4872;48.316;10.650;2024-03-02T07:33:35;8.90;99.90
9668;DHT22;4872;48.316;10.650;2024-03-02T07:36:05;9.00;99.90
9668;DHT22;4872;48.316;10.650;2024-03-02T07:38:32;9.00;99.90
9668;DHT22;4872;48.316;10.650;2024-03-02T07:41:00;9.20;99.90
9668;DHT22;4872;48.316;10.650;2024-03-02T07:43:27;9.30;99.90
9668;DHT22;4872;48.316;10.650;2024-03-02T07:45:53;9.50;99.90
9668;DHT22;4872;48.316;10.650;2024-03-02T07:48:21;9.80;99.90
9668;DHT22;4872;48.316;10.650;2024-03-02T07:50:47;9.80;99.90
9668;DHT22;4872;48.316;10.650;2024-03-02T07:53:16;9.80;99.90
9668;DHT22;4872;48.316;10.650;2024-03-02T07:55:42;9.60;99.90
9668;DHT22;4872;48.316;10.650;2024-03-02T07:58:17;9.50;99.90
9668;DHT22;4872;48.316;10.650;2024-03-02T08:00:46;9.70;99.90
9668;DHT22;4872;48.316;10.650;2024-03-02T08:03:13;9.60;99.90
9668;DHT22;4872;48.316;10.650;2024-03-02T08:05:40;9.70;99.90
9668;DHT22;4872;48.316;10.650;2024-03-02T08:08:09;9.80;99.90
9668;DHT22;4872;48.316;10.650;2024-03-02T08:10:42;10.10;99.90
9668;DHT22;4872;48.316;10.650;2024-03-02T08:13:09;10.50;99.90
9668;DHT22;4872;48.316;10.650;2024-03-02T08:15:36;10.40;99.90
9668;DHT22;4872;48.316;10.650;2024-03-02T08:18:15;10.90;99.90
9668;DHT22;4872;48.316;10.650;2024-03-02T08:22:06;10.80;99.90
9668;DHT22;4872;48.316;10.650;2024-03-02T08:24:08;11.10;99.90
9668;DHT22;4872;48.316;10.650;2024-03-02T08:36:40;11.60;99.90
9668;DHT22;4872;48.316;10.650;2024-03-02T08:39:34;11.90;99.90
9668;DHT22;4872;48.316;10.650;2024-03-02T08:42:05;11.60;98.50
9668;DHT22;4872;48.316;10.650;2024-03-02T08:48:39;11.70;98.80
9668;DHT22;4872;48.316;10.650;2024-03-02T08:51:06;11.80;98.40
9668;DHT22;4872;48.316;10.650;2024-03-02T08:53:34;11.90;98.70
9668;DHT22;4872;48.316;10.650;2024-03-02T08:56:01;11.80;98.20
9668;DHT22;4872;48.316;10.650;2024-03-02T08:58:30;11.90;98.80
9668;DHT22;4872;48.316;10.650;2024-03-02T09:00:57;11.90;98.70
9668;DHT22;4872;48.316;10.650;2024-03-02T09:03:24;11.90;98.90
9668;DHT22;4872;48.316;10.650;2024-03-02T09:05:51;11.70;98.60
9668;DHT22;4872;48.316;10.650;2024-03-02T09:08:18;11.80;99.10
9668;DHT22;4872;48.316;10.650;2024-03-02T09:10:46;11.80;99.30
9668;DHT22;4872;48.316;10.650;2024-03-02T09:13:13;11.90;99.00
9668;DHT22;4872;48.316;10.650;2024-03-02T09:15:39;12.00;99.00
9668;DHT22;4872;48.316;10.650;2024-03-02T09:18:07;12.10;98.80
9668;DHT22;4872;48.316;10.650;2024-03-02T09:20:33;12.40;99.00
9668;DHT22;4872;48.316;10.650;2024-03-02T09:23:00;12.60;98.50
9668;DHT22;4872;48.316;10.650;2024-03-02T09:25:27;12.80;98.40
9668;DHT22;4872;48.316;10.650;2024-03-02T09:27:55;13.00;97.50
9668;DHT22;4872;48.316;10.650;2024-03-02T09:30:22;13.10;97.90
9668;DHT22;4872;48.316;10.650;2024-03-02T09:32:48;13.30;97.90
9668;DHT22;4872;48.316;10.650;2024-03-02T09:35:15;13.20;96.90
9668;DHT22;4872;48.316;10.650;2024-03-02T09:37:42;13.40;97.30
9668;DHT22;4872;48.316;10.650;2024-03-02T09:40:10;13.60;96.60
9668;DHT22;4872;48.316;10.650;2024-03-02T09:42:37;13.50;96.00
9668;DHT22;4872;48.316;10.650;2024-03-02T09:45:08;13.40;96.50
9668;DHT22;4872;48.316;10.650;2024-03-02T09:47:35;13.50;96.50
9668;DHT22;4872;48.316;10.650;2024-03-02T09:50:02;13.60;95.90
9668;DHT22;4872;48.316;10.650;2024-03-02T09:53:04;13.70;96.50
9668;DHT22;4872;48.316;10.650;2024-03-02T09:55:31;14.00;96.60
9668;DHT22;4872;48.316;10.650;2024-03-02T09:57:58;14.50;95.90
9668;DHT22;4872;48.316;10.650;2024-03-02T10:00:26;14.60;95.80
9668;DHT22;4872;48.316;10.650;2024-03-02T10:02:53;14.80;95.10
9668;DHT22;4872;48.316;10.650;2024-03-02T10:05:26;14.90;94.50
9668;DHT22;4872;48.316;10.650;2024-03-02T10:08:00;15.10;94.30
9668;DHT22;4872;48.316;10.650;2024-03-02T10:10:35;15.50;94.20
9668;DHT22;4872;48.316;10.650;2024-03-02T10:13:06;15.70;94.20
9668;DHT22;4872;48.316;10.650;2024-03-02T10:15:34;16.20;94.70
9668;DHT22;4872;48.316;10.650;2024-03-02T10:18:01;16.70;94.10
9668;DHT22;4872;48.316;10.650;2024-03-02T10:20:28;17.10;93.90
9668;DHT22;4872;48.316;10.650;2024-03-02T10:22:55;17.80;92.60
9668;DHT22;4872;48.316;10.650;2024-03-02T10:25:29;18.00;91.20
9668;DHT22;4872;48.316;10.650;2024-03-02T10:27:58;18.30;90.80
9668;DHT22;4872;48.316;10.650;2024-03-02T10:30:25;18.40;89.20
9668;DHT22;4872;48.316;10.650;2024-03-02T10:32:54;18.10;90.50
9668;DHT22;4872;48.316;10.650;2024-03-02T10:35:22;18.40;89.40
9668;DHT22;4872;48.316;10.650;2024-03-02T10:37:49;18.60;88.80
9668;DHT22;4872;48.316;10.650;2024-03-02T10:40:18;18.40;87.90
9668;DHT22;4872;48.316;10.650;2024-03-02T10:42:45;18.30;89.00
9668;DHT22;4872;48.316;10.650;2024-03-02T10:45:12;18.20;85.90
9668;DHT22;4872;48.316;10.650;2024-03-02T10:47:42;18.00;85.90
9668;DHT22;4872;48.316;10.650;2024-03-02T10:50:11;17.70;86.00
9668;DHT22;4872;48.316;10.650;2024-03-02T10:52:38;17.80;87.70
9668;DHT22;4872;48.316;10.650;2024-03-02T10:55:06;18.00;89.20
9668;DHT22;4872;48.316;10.650;2024-03-02T10:57:41;18.60;88.60
9668;DHT22;4872;48.316;10.650;2024-03-02T11:00:12;19.40;85.70
9668;DHT22;4872;48.316;10.650;2024-03-02T11:02:44;19.90;85.40
9668;DHT22;4872;48.316;10.650;2024-03-02T11:05:21;20.10;82.90
9668;DHT22;4872;48.316;10.650;2024-03-02T11:07:52;19.90;77.60
9668;DHT22;4872;48.316;10.650;2024-03-02T11:10:20;19.50;78.00
9668;DHT22;4872;48.316;10.650;2024-03-02T11:12:55;19.90;80.90
9668;DHT22;4872;48.316;10.650;2024-03-02T11:15:25;20.50;79.70
9668;DHT22;4872;48.316;10.650;2024-03-02T11:17:53;21.10;77.40
9668;DHT22;4872;48.316;10.650;2024-03-02T11:20:22;21.40;75.30
9668;DHT22;4872;48.316;10.650;2024-03-02T11:22:50;21.40;71.30
9668;DHT22;4872;48.316;10.650;2024-03-02T11:25:24;21.40;69.70
9668;DHT22;4872;48.316;10.650;2024-03-02T11:28:02;21.00;72.80
9668;DHT22;4872;48.316;10.650;2024-03-02T11:33:56;21.30;68.20
9668;DHT22;4872;48.316;10.650;2024-03-02T11:36:25;21.80;70.40
9668;DHT22;4872;48.316;10.650;2024-03-02T11:38:52;22.20;68.40
9668;DHT22;4872;48.316;10.650;2024-03-02T11:41:34;22.60;66.40
9668;DHT22;4872;48.316;10.650;2024-03-02T11:44:04;22.70;64.90
9668;DHT22;4872;48.316;10.650;2024-03-02T11:46:30;22.70;64.20
9668;DHT22;4872;48.316;10.650;2024-03-02T11:48:57;22.90;65.40
9668;DHT22;4872;48.316;10.650;2024-03-02T11:51:25;22.60;64.00
9668;DHT22;4872;48.316;10.650;2024-03-02T11:53:54;22.50;62.50
9668;DHT22;4872;48.316;10.650;2024-03-02T11:56:22;22.80;63.10
9668;DHT22;4872;48.316;10.650;2024-03-02T11:58:52;22.50;62.90
9668;DHT22;4872;48.316;10.650;2024-03-02T12:01:20;22.00;63.80
9668;DHT22;4872;48.316;10.650;2024-03-02T12:03:47;22.10;63.60
9668;DHT22;4872;48.316;10.650;2024-03-02T12:06:15;22.30;65.90
9668;DHT22;4872;48.316;10.650;2024-03-02T12:08:43;22.80;63.10
9668;DHT22;4872;48.316;10.650;2024-03-02T12:11:13;22.30;61.40
9668;DHT22;4872;48.316;10.650;2024-03-02T12:13:40;22.60;62.10
9668;DHT22;4872;48.316;10.650;2024-03-02T12:16:06;23.10;63.50
9668;DHT22;4872;48.316;10.650;2024-03-02T12:18:33;23.00;60.40
9668;DHT22;4872;48.316;10.650;2024-03-02T12:21:01;22.20;59.90
9668;DHT22;4872;48.316;10.650;2024-03-02T12:23:29;21.40;61.50
9668;DHT22;4872;48.316;10.650;2024-03-02T12:25:57;21.00;62.20
9668;DHT22;4872;48.316;10.650;2024-03-02T12:28:25;20.10;63.40
9668;DHT22;4872;48.316;10.650;2024-03-02T12:30:51;19.80;64.30
9668;DHT22;4872;48.316;10.650;2024-03-02T12:33:19;19.50;64.40
9668;DHT22;4872;48.316;10.650;2024-03-02T12:35:46;19.40;64.90
9668;DHT22;4872;48.316;10.650;2024-03-02T12:38:14;19.40;65.00
9668;DHT22;4872;48.316;10.650;2024-03-02T12:40:41;18.90;64.20
9668;DHT22;4872;48.316;10.650;2024-03-02T12:43:09;18.50;66.90
9668;DHT22;4872;48.316;10.650;2024-03-02T12:45:36;18.10;66.90
9668;DHT22;4872;48.316;10.650;2024-03-02T12:48:04;18.00;68.40
9668;DHT22;4872;48.316;10.650;2024-03-02T12:50:32;17.90;69.30
9668;DHT22;4872;48.316;10.650;2024-03-02T12:52:59;18.00;70.90
9668;DHT22;4872;48.316;10.650;2024-03-02T12:55:26;17.80;72.20
9668;DHT22;4872;48.316;10.650;2024-03-02T12:57:54;17.90;72.10
9668;DHT22;4872;48.316;10.650;2024-03-02T13:00:23;17.90;71.90
9668;DHT22;4872;48.316;10.650;2024-03-02T13:02:50;18.10;71.70
9668;DHT22;4872;48.316;10.650;2024-03-02T13:11:51;18.00;72.70
9668;DHT22;4872;48.316;10.650;2024-03-02T13:14:18;18.10;71.90
9668;DHT22;4872;48.316;10.650;2024-03-02T13:16:51;17.90;72.80
9668;DHT22;4872;48.316;10.650;2024-03-02T13:19:21;18.00;70.20
9668;DHT22;4872;48.316;10.650;2024-03-02T13:22:18;18.30;71.70
9668;DHT22;4872;48.316;10.650;2024-03-02T13:28:04;17.80;71.90
9668;DHT22;4872;48.316;10.650;2024-03-02T13:30:31;17.50;72.20
9668;DHT22;4872;48.316;10.650;2024-03-02T13:33:12;17.60;72.10
9668;DHT22;4872;48.316;10.650;2024-03-02T13:47:10;17.90;71.20
9668;DHT22;4872;48.316;10.650;2024-03-02T13:49:38;17.90;71.60
9668;DHT22;4872;48.316;10.650;2024-03-02T13:52:30;17.90;71.70
9668;DHT22;4872;48.316;10.650;2024-03-02T14:00:53;17.90;71.30
9668;DHT22;4872;48.316;10.650;2024-03-02T14:03:22;17.90;71.30
9668;DHT22;4872;48.316;10.650;2024-03-02T14:05:50;17.70;72.80
9668;DHT22;4872;48.316;10.650;2024-03-02T14:08:18;17.50;73.50
9668;DHT22;4872;48.316;10.650;2024-03-02T14:10:45;17.30;74.30
9668;DHT22;4872;48.316;10.650;2024-03-02T14:13:11;17.30;73.10
9668;DHT22;4872;48.316;10.650;2024-03-02T14:15:38;17.30;74.20
9668;DHT22;4872;48.316;10.650;2024-03-02T14:18:13;17.20;73.70
9668;DHT22;4872;48.316;10.650;2024-03-02T14:20:40;17.10;73.60
9668;DHT22;4872;48.316;10.650;2024-03-02T14:23:09;17.10;74.10
9668;DHT22;4872;48.316;10.650;2024-03-02T14:25:42;16.80;73.70
9668;DHT22;4872;48.316;10.650;2024-03-02T14:28:09;16.90;74.50
9668;DHT22;4872;48.316;10.650;2024-03-02T14:30:37;17.00;75.00
9668;DHT22;4872;48.316;10.650;2024-03-02T14:33:04;17.20;73.70
9668;DHT22;4872;48.316;10.650;2024-03-02T14:35:31;17.10;74.10
9668;DHT22;4872;48.316;10.650;2024-03-02T14:37:58;17.00;75.20
9668;DHT22;4872;48.316;10.650;2024-03-02T14:40:26;17.20;74.30
9668;DHT22;4872;48.316;10.650;2024-03-02T14:42:54;17.30;74.80
9668;DHT22;4872;48.316;10.650;2024-03-02T14:45:21;17.20;73.90
9668;DHT22;4872;48.316;10.650;2024-03-02T14:47:49;17.40;73.50
9668;DHT22;4872;48.316;10.650;2024-03-02T14:50:16;17.60;74.30
9668;DHT22;4872;48.316;10.650;2024-03-02T14:52:44;17.60;73.30
9668;DHT22;4872;48.316;10.650;2024-03-02T14:55:11;17.60;73.40
9668;DHT22;4872;48.316;10.650;2024-03-02T14:57:39;17.40;73.00
9668;DHT22;4872;48.316;10.650;2024-03-02T15:00:06;17.40;73.50
9668;DHT22;4872;48.316;10.650;2024-03-02T15:02:34;17.50;72.00
9668;DHT22;4872;48.316;10.650;2024-03-02T15:05:00;17.80;73.00
9668;DHT22;4872;48.316;10.650;2024-03-02T15:07:28;17.70;74.40
9668;DHT22;4872;48.316;10.650;2024-03-02T15:09:54;18.10;74.40
9668;DHT22;4872;48.316;10.650;2024-03-02T15:12:21;18.50;73.90
9668;DHT22;4872;48.316;10.650;2024-03-02T15:14:49;19.00;73.30
9668;DHT22;4872;48.316;10.650;2024-03-02T15:17:16;19.30;72.30
9668;DHT22;4872;48.316;10.650;2024-03-02T15:19:44;19.40;71.60
9668;DHT22;4872;48.316;10.650;2024-03-02T15:22:11;19.30;71.80
9668;DHT22;4872;48.316;10.650;2024-03-02T15:24:38;19.00;71.80
9668;DHT22;4872;48.316;10.650;2024-03-02T15:27:06;18.60;71.30
9668;DHT22;4872;48.316;10.650;2024-03-02T15:29:33;17.90;72.40
9668;DHT22;4872;48.316;10.650;2024-03-02T15:32:02;17.10;73.60
9668;DHT22;4872;48.316;10.650;2024-03-02T15:34:32;16.60;74.70
9668;DHT22;4872;48.316;10.650;2024-03-02T15:36:59;16.20;74.60
9668;DHT22;4872;48.316;10.650;2024-03-02T15:39:26;15.60;75.60
9668;DHT22;4872;48.316;10.650;2024-03-02T15:41:53;15.30;76.40
9668;DHT22;4872;48.316;10.650;2024-03-02T15:44:20;15.20;76.50
9668;DHT22;4872;48.316;10.650;2024-03-02T15:46:46;15.00;76.60
9668;DHT22;4872;48.316;10.650;2024-03-02T15:49:15;14.80;77.60
9668;DHT22;4872;48.316;10.650;2024-03-02T15:51:42;14.60;78.00
9668;DHT22;4872;48.316;10.650;2024-03-02T15:54:09;14.50;77.90
9668;DHT22;4872;48.316;10.650;2024-03-02T15:56:36;14.30;78.60
9668;DHT22;4872;48.316;10.650;2024-03-02T15:59:03;14.20;79.30
9668;DHT22;4872;48.316;10.650;2024-03-02T16:01:30;14.10;79.30
9668;DHT22;4872;48.316;10.650;2024-03-02T16:03:57;14.10;80.00
9668;DHT22;4872;48.316;10.650;2024-03-02T16:06:25;13.80;80.00
9668;DHT22;4872;48.316;10.650;2024-03-02T16:08:52;13.70;80.30
9668;DHT22;4872;48.316;10.650;2024-03-02T16:11:21;13.70;80.60
9668;DHT22;4872;48.316;10.650;2024-03-02T16:13:47;13.60;80.80
9668;DHT22;4872;48.316;10.650;2024-03-02T16:16:14;13.50;81.00
9668;DHT22;4872;48.316;10.650;2024-03-02T16:18:41;13.40;81.30
9668;DHT22;4872;48.316;10.650;2024-03-02T16:21:08;13.30;81.50
9668;DHT22;4872;48.316;10.650;2024-03-02T16:23:36;13.10;81.10
9668;DHT22;4872;48.316;10.650;2024-03-02T16:26:03;13.00;81.40
9668;DHT22;4872;48.316;10.650;2024-03-02T16:28:31;12.90;81.90
9668;DHT22;4872;48.316;10.650;2024-03-02T16:30:57;12.80;82.40
9668;DHT22;4872;48.316;10.650;2024-03-02T16:33:24;12.60;83.00
9668;DHT22;4872;48.316;10.650;2024-03-02T16:35:51;12.50;83.20
9668;DHT22;4872;48.316;10.650;2024-03-02T16:38:18;12.40;83.30
9668;DHT22;4872;48.316;10.650;2024-03-02T16:40:46;12.20;83.00
9668;DHT22;4872;48.316;10.650;2024-03-02T16:43:13;12.10;82.70
9668;DHT22;4872;48.316;10.650;2024-03-02T16:48:27;12.00;83.20
9668;DHT22;4872;48.316;10.650;2024-03-02T16:50:54;11.70;83.40
9668;DHT22;4872;48.316;10.650;2024-03-02T16:53:55;11.50;83.60
9668;DHT22;4872;48.316;10.650;2024-03-02T16:56:23;11.40;83.70
9668;DHT22;4872;48.316;10.650;2024-03-02T16:58:50;11.40;84.20
9668;DHT22;4872;48.316;10.650;2024-03-02T17:01:17;11.20;84.40
9668;DHT22;4872;48.316;10.650;2024-03-02T17:03:43;11.20;84.80
9668;DHT22;4872;48.316;10.650;2024-03-02T17:06:10;11.10;85.20
9668;DHT22;4872;48.316;10.650;2024-03-02T17:08:37;10.90;85.60
9668;DHT22;4872;48.316;10.650;2024-03-02T17:11:04;11.20;86.30
9668;DHT22;4872;48.316;10.650;2024-03-02T17:13:32;10.80;86.40
9668;DHT22;4872;48.316;10.650;2024-03-02T17:15:59;10.50;86.40
9668;DHT22;4872;48.316;10.650;2024-03-02T17:18:25;10.80;87.10
9668;DHT22;4872;48.316;10.650;2024-03-02T17:20:52;10.50;87.20
9668;DHT22;4872;48.316;10.650;2024-03-02T17:23:19;10.50;87.60
9668;DHT22;4872;48.316;10.650;2024-03-02T17:25:45;10.40;88.00
9668;DHT22;4872;48.316;10.650;2024-03-02T17:28:21;10.50;88.50
9668;DHT22;4872;48.316;10.650;2024-03-02T17:31:01;10.30;88.80
9668;DHT22;4872;48.316;10.650;2024-03-02T17:33:34;10.20;89.20
9668;DHT22;4872;48.316;10.650;2024-03-02T17:36:01;10.30;89.80
9668;DHT22;4872;48.316;10.650;2024-03-02T17:38:29;10.20;90.20
9668;DHT22;4872;48.316;10.650;2024-03-02T17:40:56;10.10;90.40
9668;DHT22;4872;48.316;10.650;2024-03-02T17:43:23;10.10;90.70
9668;DHT22;4872;48.316;10.650;2024-03-02T17:45:49;10.20;91.30
9668;DHT22;4872;48.316;10.650;2024-03-02T17:48:18;10.00;91.40
9668;DHT22;4872;48.316;10.650;2024-03-02T17:50:47;9.90;92.10
9668;DHT22;4872;48.316;10.650;2024-03-02T17:53:14;9.80;92.40
9668;DHT22;4872;48.316;10.650;2024-03-02T17:55:41;10.00;92.30
9668;DHT22;4872;48.316;10.650;2024-03-02T17:58:15;9.80;92.90
9668;DHT22;4872;48.316;10.650;2024-03-02T18:00:42;9.70;93.10
9668;DHT22;4872;48.316;10.650;2024-03-02T18:03:10;9.70;93.40
9668;DHT22;4872;48.316;10.650;2024-03-02T18:05:38;9.70;93.60
9668;DHT22;4872;48.316;10.650;2024-03-02T18:08:06;9.80;93.80
9668;DHT22;4872;48.316;10.650;2024-03-02T18:10:32;9.60;94.10
9668;DHT22;4872;48.316;10.650;2024-03-02T18:12:59;9.80;94.40
9668;DHT22;4872;48.316;10.650;2024-03-02T18:15:26;9.60;94.60
9668;DHT22;4872;48.316;10.650;2024-03-02T18:17:53;9.50;94.90
9668;DHT22;4872;48.316;10.650;2024-03-02T18:20:20;9.70;95.30
9668;DHT22;4872;48.316;10.650;2024-03-02T18:22:48;9.50;95.40
9668;DHT22;4872;48.316;10.650;2024-03-02T18:25:14;9.50;95.70
9668;DHT22;4872;48.316;10.650;2024-03-02T18:28:17;9.40;95.90
9668;DHT22;4872;48.316;10.650;2024-03-02T18:30:44;9.40;96.00
9668;DHT22;4872;48.316;10.650;2024-03-02T18:33:11;9.40;96.40
9668;DHT22;4872;48.316;10.650;2024-03-02T18:35:38;9.40;96.60
9668;DHT22;4872;48.316;10.650;2024-03-02T18:38:06;9.40;96.70
9668;DHT22;4872;48.316;10.650;2024-03-02T18:40:33;9.40;96.70
9668;DHT22;4872;48.316;10.650;2024-03-02T18:43:00;9.40;96.90
9668;DHT22;4872;48.316;10.650;2024-03-02T18:45:45;9.40;97.10
9668;DHT22;4872;48.316;10.650;2024-03-02T18:48:12;9.30;97.20
9668;DHT22;4872;48.316;10.650;2024-03-02T18:50:40;9.60;97.50
9668;DHT22;4872;48.316;10.650;2024-03-02T18:53:08;9.30;97.60
9668;DHT22;4872;48.316;10.650;2024-03-02T18:55:35;9.50;97.90
9668;DHT22;4872;48.316;10.650;2024-03-02T18:58:02;9.20;98.00
9668;DHT22;4872;48.316;10.650;2024-03-02T19:00:29;9.10;98.20
9668;DHT22;4872;48.316;10.650;2024-03-02T19:02:55;9.00;98.40
9668;DHT22;4872;48.316;10.650;2024-03-02T19:05:22;9.00;98.60
9668;DHT22;4872;48.316;10.650;2024-03-02T19:07:49;8.90;98.80
9668;DHT22;4872;48.316;10.650;2024-03-02T19:10:17;8.80;99.00
9668;DHT22;4872;48.316;10.650;2024-03-02T19:12:44;8.80;99.20
9668;DHT22;4872;48.316;10.650;2024-03-02T19:15:13;8.70;99.50
9668;DHT22;4872;48.316;10.650;2024-03-02T19:17:39;8.60;99.90
9668;DHT22;4872;48.316;10.650;2024-03-02T19:20:07;8.70;99.90
9668;DHT22;4872;48.316;10.650;2024-03-02T19:22:36;8.50;99.90
9668;DHT22;4872;48.316;10.650;2024-03-02T19:25:03;8.50;99.90
9668;DHT22;4872;48.316;10.650;2024-03-02T19:27:34;8.50;99.90
9668;DHT22;4872;48.316;10.650;2024-03-02T19:30:00;8.50;99.90
9668;DHT22;4872;48.316;10.650;2024-03-02T19:32:30;8.60;99.90
9668;DHT22;4872;48.316;10.650;2024-03-02T19:34:57;8.60;99.90
9668;DHT22;4872;48.316;10.650;2024-03-02T19:37:25;8.40;99.90
9668;DHT22;4872;48.316;10.650;2024-03-02T19:39:51;8.50;99.90
9668;DHT22;4872;48.316;10.650;2024-03-02T19:42:18;8.30;99.90
9668;DHT22;4872;48.316;10.650;2024-03-02T19:44:46;8.30;99.90
9668;DHT22;4872;48.316;10.650;2024-03-02T19:47:13;8.30;99.90
9668;DHT22;4872;48.316;10.650;2024-03-02T19:49:43;8.30;99.90
9668;DHT22;4872;48.316;10.650;2024-03-02T19:52:10;8.30;99.90
9668;DHT22;4872;48.316;10.650;2024-03-02T19:54:37;8.30;99.90
9668;DHT22;4872;48.316;10.650;2024-03-02T19:57:04;8.30;99.90
9668;DHT22;4872;48.316;10.650;2024-03-02T19:59:31;8.30;99.90
9668;DHT22;4872;48.316;10.650;2024-03-02T20:01:59;8.40;99.90
9668;DHT22;4872;48.316;10.650;2024-03-02T20:04:27;8.50;99.90
9668;DHT22;4872;48.316;10.650;2024-03-02T20:06:54;8.20;99.90
9668;DHT22;4872;48.316;10.650;2024-03-02T20:09:21;8.20;99.90
9668;DHT22;4872;48.316;10.650;2024-03-02T20:11:48;8.10;99.90
9668;DHT22;4872;48.316;10.650;2024-03-02T20:14:14;8.10;99.90
9668;DHT22;4872;48.316;10.650;2024-03-02T20:16:42;8.20;99.90
9668;DHT22;4872;48.316;10.650;2024-03-02T20:19:11;8.10;99.90
9668;DHT22;4872;48.316;10.650;2024-03-02T20:21:38;8.10;99.90
9668;DHT22;4872;48.316;10.650;2024-03-02T20:24:05;8.00;99.90
9668;DHT22;4872;48.316;10.650;2024-03-02T20:26:32;8.00;99.90
9668;DHT22;4872;48.316;10.650;2024-03-02T20:28:58;7.90;99.90
9668;DHT22;4872;48.316;10.650;2024-03-02T20:31:26;7.90;99.90
9668;DHT22;4872;48.316;10.650;2024-03-02T20:33:53;7.90;99.90
9668;DHT22;4872;48.316;10.650;2024-03-02T20:36:21;7.90;99.90
9668;DHT22;4872;48.316;10.650;2024-03-02T20:38:48;7.90;99.90
9668;DHT22;4872;48.316;10.650;2024-03-02T20:41:15;7.90;99.90
9668;DHT22;4872;48.316;10.650;2024-03-02T20:43:42;7.90;99.90
9668;DHT22;4872;48.316;10.650;2024-03-02T20:52:23;7.30;99.90
9668;DHT22;4872;48.316;10.650;2024-03-02T20:54:49;7.30;99.90
9668;DHT22;4872;48.316;10.650;2024-03-02T20:57:16;7.20;99.90
9668;DHT22;4872;48.316;10.650;2024-03-02T20:59:44;7.20;99.90
9668;DHT22;4872;48.316;10.650;2024-03-02T21:02:12;7.20;99.90
9668;DHT22;4872;48.316;10.650;2024-03-02T21:04:38;7.30;99.90
9668;DHT22;4872;48.316;10.650;2024-03-02T21:07:07;7.30;99.90
9668;DHT22;4872;48.316;10.650;2024-03-02T21:09:35;7.20;99.90
9668;DHT22;4872;48.316;10.650;2024-03-02T21:12:02;7.20;99.90
9668;DHT22;4872;48.316;10.650;2024-03-02T21:14:31;7.20;99.90
9668;DHT22;4872;48.316;10.650;2024-03-02T21:16:58;7.00;99.90
9668;DHT22;4872;48.316;10.650;2024-03-02T21:19:25;7.10;99.90
9668;DHT22;4872;48.316;10.650;2024-03-02T21:21:51;7.30;99.90
9668;DHT22;4872;48.316;10.650;2024-03-02T21:24:19;7.20;99.90
9668;DHT22;4872;48.316;10.650;2024-03-02T21:26:47;7.20;99.90
9668;DHT22;4872;48.316;10.650;2024-03-02T21:29:15;7.10;99.90
9668;DHT22;4872;48.316;10.650;2024-03-02T21:31:45;7.00;99.90
9668;DHT22;4872;48.316;10.650;2024-03-02T21:34:11;6.90;99.90
9668;DHT22;4872;48.316;10.650;2024-03-02T21:36:38;6.80;99.90
9668;DHT22;4872;48.316;10.650;2024-03-02T21:39:05;6.80;99.90
9668;DHT22;4872;48.316;10.650;2024-03-02T21:41:33;6.80;99.90
9668;DHT22;4872;48.316;10.650;2024-03-02T21:44:03;6.80;99.90
9668;DHT22;4872;48.316;10.650;2024-03-02T21:46:30;6.80;99.90
9668;DHT22;4872;48.316;10.650;2024-03-02T21:48:56;6.90;99.90
9668;DHT22;4872;48.316;10.650;2024-03-02T21:51:23;6.90;99.90
9668;DHT22;4872;48.316;10.650;2024-03-02T21:53:50;6.80;99.90
9668;DHT22;4872;48.316;10.650;2024-03-02T21:56:18;6.80;99.90
9668;DHT22;4872;48.316;10.650;2024-03-02T21:58:45;6.80;99.90
9668;DHT22;4872;48.316;10.650;2024-03-02T22:01:13;6.70;99.90